sensor_id;sensor_type;location;lat;lon;timestamp;pressure;altitude;pressure_sealevel;temperature;humidity
41140;BME280;26881;48.784;9.192;2022-12-18T00:02:33;99765.47;;;-5.83;80.69
41140;BME280;26881;48.784;9.192;2022-12-18T00:07:55;99776.53;;;-5.83;80.27
41140;BME280;26881;48.784;9.192;2022-12-18T00:13:17;99765.59;;;-5.79;79.98
41140;BME280;26881;48.784;9.192;2022-12-18T00:18:40;99762.78;;;-5.56;79.61
41140;BME280;26881;48.784;9.192;2022-12-18T00:24:02;99768.25;;;-5.76;79.98
41140;BME280;26881;48.784;9.192;2022-12-18T00:29:24;99759.69;;;-5.78;80.37
41140;BME280;26881;48.784;9.192;2022-12-18T00:34:46;99768.63;;;-5.92;80.98
41140;BME280;26881;48.784;9.192;2022-12-18T00:40:08;99778.97;;;-5.53;79.88
41140;BME280;26881;48.784;9.192;2022-12-18T00:45:31;99777.78;;;-5.67;79.17
41140;BME280;26881;48.784;9.192;2022-12-18T00:50:53;99771.09;;;-5.62;78.48
41140;BME280;26881;48.784;9.192;2022-12-18T00:56:14;99781.19;;;-6.01;79.43
41140;BME280;26881;48.784;9.192;2022-12-18T01:01:36;99775.19;;;-6.03;80.38
41140;BME280;26881;48.784;9.192;2022-12-18T01:06:58;99776.50;;;-6.18;80.64
41140;BME280;26881;48.784;9.192;2022-12-18T01:12:20;99767.75;;;-5.96;80.86
41140;BME280;26881;48.784;9.192;2022-12-18T01:17:42;99777.22;;;-5.88;80.27
41140;BME280;26881;48.784;9.192;2022-12-18T01:23:04;99777.13;;;-5.93;80.26
41140;BME280;26881;48.784;9.192;2022-12-18T01:28:26;99785.00;;;-6.17;81.09
41140;BME280;26881;48.784;9.192;2022-12-18T01:33:49;99781.19;;;-6.01;81.00
41140;BME280;26881;48.784;9.192;2022-12-18T01:39:12;99777.38;;;-5.49;78.82
41140;BME280;26881;48.784;9.192;2022-12-18T01:50:23;99779.59;;;-5.63;78.84
41140;BME280;26881;48.784;9.192;2022-12-18T01:55:48;99786.22;;;-5.69;79.00
41140;BME280;26881;48.784;9.192;2022-12-18T02:01:11;99789.34;;;-5.80;78.59
41140;BME280;26881;48.784;9.192;2022-12-18T02:06:39;99775.84;;;-5.77;77.88
41140;BME280;26881;48.784;9.192;2022-12-18T02:12:13;99776.25;;;-5.95;79.54
41140;BME280;26881;48.784;9.192;2022-12-18T02:17:48;99779.97;;;-5.81;79.19
41140;BME280;26881;48.784;9.192;2022-12-18T02:28:59;99780.78;;;-5.48;78.43
41140;BME280;26881;48.784;9.192;2022-12-18T02:34:26;99794.88;;;-5.63;78.87
41140;BME280;26881;48.784;9.192;2022-12-18T02:39:51;99794.44;;;-5.46;78.74
41140;BME280;26881;48.784;9.192;2022-12-18T02:45:14;99797.00;;;-5.46;77.84
41140;BME280;26881;48.784;9.192;2022-12-18T02:50:44;99796.56;;;-5.63;78.62
41140;BME280;26881;48.784;9.192;2022-12-18T02:56:15;99805.16;;;-5.60;78.25
41140;BME280;26881;48.784;9.192;2022-12-18T03:07:19;99793.06;;;-5.67;79.14
41140;BME280;26881;48.784;9.192;2022-12-18T03:12:46;99798.38;;;-5.59;78.94
41140;BME280;26881;48.784;9.192;2022-12-18T03:18:15;99809.25;;;-5.65;78.32
41140;BME280;26881;48.784;9.192;2022-12-18T03:23:44;99816.84;;;-6.01;78.43
41140;BME280;26881;48.784;9.192;2022-12-18T03:29:13;99812.59;;;-5.67;78.69
41140;BME280;26881;48.784;9.192;2022-12-18T03:34:40;99824.44;;;-5.69;77.52
41140;BME280;26881;48.784;9.192;2022-12-18T03:40:04;99831.34;;;-6.29;79.17
41140;BME280;26881;48.784;9.192;2022-12-18T03:45:32;99819.59;;;-6.24;79.73
41140;BME280;26881;48.784;9.192;2022-12-18T03:50:58;99816.84;;;-6.01;79.12
41140;BME280;26881;48.784;9.192;2022-12-18T03:56:22;99821.94;;;-5.68;77.49
41140;BME280;26881;48.784;9.192;2022-12-18T04:01:47;99822.19;;;-5.57;76.96
41140;BME280;26881;48.784;9.192;2022-12-18T04:07:11;99820.84;;;-5.78;76.70
41140;BME280;26881;48.784;9.192;2022-12-18T04:12:34;99814.66;;;-5.53;76.68
41140;BME280;26881;48.784;9.192;2022-12-18T04:17:55;99812.03;;;-5.89;75.93
41140;BME280;26881;48.784;9.192;2022-12-18T04:23:17;99818.91;;;-5.86;76.65
41140;BME280;26881;48.784;9.192;2022-12-18T04:28:39;99813.06;;;-5.82;76.20
41140;BME280;26881;48.784;9.192;2022-12-18T04:34:01;99835.38;;;-5.74;76.68
41140;BME280;26881;48.784;9.192;2022-12-18T04:39:24;99842.94;;;-5.45;76.42
41140;BME280;26881;48.784;9.192;2022-12-18T04:44:46;99840.75;;;-5.63;76.14
41140;BME280;26881;48.784;9.192;2022-12-18T04:50:08;99825.16;;;-5.42;75.27
41140;BME280;26881;48.784;9.192;2022-12-18T04:55:30;99811.66;;;-5.38;74.87
41140;BME280;26881;48.784;9.192;2022-12-18T05:00:51;99799.66;;;-5.42;73.65
41140;BME280;26881;48.784;9.192;2022-12-18T05:06:13;99814.66;;;-5.19;73.33
41140;BME280;26881;48.784;9.192;2022-12-18T05:11:35;99815.91;;;-5.38;73.60
41140;BME280;26881;48.784;9.192;2022-12-18T05:16:57;99816.94;;;-5.30;74.59
41140;BME280;26881;48.784;9.192;2022-12-18T05:22:21;99817.28;;;-5.51;74.82
41140;BME280;26881;48.784;9.192;2022-12-18T05:27:44;99839.78;;;-5.66;74.85
41140;BME280;26881;48.784;9.192;2022-12-18T05:33:06;99847.84;;;-5.51;73.92
41140;BME280;26881;48.784;9.192;2022-12-18T05:38:29;99842.69;;;-5.86;75.08
41140;BME280;26881;48.784;9.192;2022-12-18T05:43:51;99855.91;;;-6.29;75.61
41140;BME280;26881;48.784;9.192;2022-12-18T05:49:12;99848.13;;;-6.36;75.99
41140;BME280;26881;48.784;9.192;2022-12-18T05:54:34;99843.84;;;-6.37;76.06
41140;BME280;26881;48.784;9.192;2022-12-18T05:59:56;99834.94;;;-6.51;76.87
41140;BME280;26881;48.784;9.192;2022-12-18T06:05:18;99832.59;;;-6.45;77.27
41140;BME280;26881;48.784;9.192;2022-12-18T06:10:41;99836.06;;;-6.11;76.42
41140;BME280;26881;48.784;9.192;2022-12-18T06:16:06;99851.94;;;-6.21;75.55
41140;BME280;26881;48.784;9.192;2022-12-18T06:21:29;99853.84;;;-6.43;76.41
41140;BME280;26881;48.784;9.192;2022-12-18T06:26:52;99844.44;;;-6.45;76.58
41140;BME280;26881;48.784;9.192;2022-12-18T06:32:14;99855.88;;;-6.60;76.27
41140;BME280;26881;48.784;9.192;2022-12-18T06:37:35;99863.47;;;-6.88;76.94
41140;BME280;26881;48.784;9.192;2022-12-18T06:42:57;99876.34;;;-6.84;76.01
41140;BME280;26881;48.784;9.192;2022-12-18T06:48:19;99878.66;;;-6.91;75.90
41140;BME280;26881;48.784;9.192;2022-12-18T06:53:41;99863.94;;;-7.00;74.99
41140;BME280;26881;48.784;9.192;2022-12-18T06:59:03;99865.56;;;-7.29;75.67
41140;BME280;26881;48.784;9.192;2022-12-18T07:04:29;99870.84;;;-7.23;75.58
41140;BME280;26881;48.784;9.192;2022-12-18T07:09:51;99880.19;;;-7.22;76.21
41140;BME280;26881;48.784;9.192;2022-12-18T07:15:13;99901.16;;;-7.29;76.13
41140;BME280;26881;48.784;9.192;2022-12-18T07:20:35;99890.44;;;-6.93;75.09
41140;BME280;26881;48.784;9.192;2022-12-18T07:26:10;99907.09;;;-7.03;74.60
41140;BME280;26881;48.784;9.192;2022-12-18T07:31:33;99904.44;;;-7.06;74.62
41140;BME280;26881;48.784;9.192;2022-12-18T07:36:55;99903.88;;;-7.23;74.30
41140;BME280;26881;48.784;9.192;2022-12-18T07:42:16;99909.50;;;-7.06;75.36
41140;BME280;26881;48.784;9.192;2022-12-18T07:47:53;99912.88;;;-6.82;75.93
41140;BME280;26881;48.784;9.192;2022-12-18T07:53:15;99910.06;;;-6.64;74.49
41140;BME280;26881;48.784;9.192;2022-12-18T07:58:37;99917.72;;;-6.62;73.69
41140;BME280;26881;48.784;9.192;2022-12-18T08:03:59;99917.56;;;-6.67;75.00
41140;BME280;26881;48.784;9.192;2022-12-18T08:09:20;99917.81;;;-6.59;74.12
41140;BME280;26881;48.784;9.192;2022-12-18T08:14:42;99918.19;;;-6.74;74.30
41140;BME280;26881;48.784;9.192;2022-12-18T08:20:04;99911.75;;;-6.36;73.85
41140;BME280;26881;48.784;9.192;2022-12-18T08:25:27;99916.94;;;-6.60;74.20
41140;BME280;26881;48.784;9.192;2022-12-18T08:30:51;99906.09;;;-6.54;74.66
41140;BME280;26881;48.784;9.192;2022-12-18T08:36:13;99913.59;;;-6.59;74.71
41140;BME280;26881;48.784;9.192;2022-12-18T08:41:35;99908.38;;;-6.34;73.77
41140;BME280;26881;48.784;9.192;2022-12-18T08:46:57;99913.53;;;-6.04;72.93
41140;BME280;26881;48.784;9.192;2022-12-18T08:52:19;99916.34;;;-6.24;73.19
41140;BME280;26881;48.784;9.192;2022-12-18T08:57:40;99909.00;;;-6.13;73.19
41140;BME280;26881;48.784;9.192;2022-12-18T09:03:02;99899.72;;;-6.12;73.63
41140;BME280;26881;48.784;9.192;2022-12-18T09:08:24;99891.03;;;-6.19;74.40
41140;BME280;26881;48.784;9.192;2022-12-18T09:13:46;99885.59;;;-5.69;74.62
41140;BME280;26881;48.784;9.192;2022-12-18T09:19:08;99890.69;;;-5.69;73.22
41140;BME280;26881;48.784;9.192;2022-12-18T09:24:31;99893.81;;;-5.80;74.80
41140;BME280;26881;48.784;9.192;2022-12-18T09:29:52;99880.19;;;-5.50;75.72
41140;BME280;26881;48.784;9.192;2022-12-18T09:35:14;99876.91;;;-5.11;74.34
41140;BME280;26881;48.784;9.192;2022-12-18T09:40:41;99876.41;;;-4.98;73.83
41140;BME280;26881;48.784;9.192;2022-12-18T09:46:10;99877.66;;;-4.80;73.78
41140;BME280;26881;48.784;9.192;2022-12-18T09:51:42;99864.94;;;-4.79;73.30
41140;BME280;26881;48.784;9.192;2022-12-18T09:57:06;99845.72;;;-4.63;73.70
41140;BME280;26881;48.784;9.192;2022-12-18T10:02:30;99860.16;;;-4.65;74.34
41140;BME280;26881;48.784;9.192;2022-12-18T10:08:02;99856.91;;;-4.58;74.79
41140;BME280;26881;48.784;9.192;2022-12-18T10:13:45;99863.91;;;-4.49;74.06
41140;BME280;26881;48.784;9.192;2022-12-18T10:19:20;99867.63;;;-4.35;74.10
41140;BME280;26881;48.784;9.192;2022-12-18T10:25:01;99872.47;;;-4.08;73.98
41140;BME280;26881;48.784;9.192;2022-12-18T10:30:27;99867.25;;;-4.12;74.18
41140;BME280;26881;48.784;9.192;2022-12-18T10:35:52;99854.25;;;-3.82;73.60
41140;BME280;26881;48.784;9.192;2022-12-18T10:46:38;99867.84;;;-3.83;73.14
41140;BME280;26881;48.784;9.192;2022-12-18T10:52:20;99861.28;;;-3.69;73.28
41140;BME280;26881;48.784;9.192;2022-12-18T10:57:43;99867.25;;;-3.70;73.52
41140;BME280;26881;48.784;9.192;2022-12-18T11:03:35;99865.66;;;-3.63;73.98
41140;BME280;26881;48.784;9.192;2022-12-18T11:09:09;99866.09;;;-3.40;73.36
41140;BME280;26881;48.784;9.192;2022-12-18T11:14:47;99856.06;;;-3.28;74.07
41140;BME280;26881;48.784;9.192;2022-12-18T11:20:31;99844.09;;;-3.30;74.30
41140;BME280;26881;48.784;9.192;2022-12-18T11:25:59;99822.28;;;-3.08;74.47
41140;BME280;26881;48.784;9.192;2022-12-18T11:31:26;99816.56;;;-2.92;74.62
41140;BME280;26881;48.784;9.192;2022-12-18T11:36:49;99821.00;;;-2.80;74.61
41140;BME280;26881;48.784;9.192;2022-12-18T11:42:43;99823.84;;;-2.60;74.57
41140;BME280;26881;48.784;9.192;2022-12-18T11:48:21;99818.78;;;-2.56;74.03
41140;BME280;26881;48.784;9.192;2022-12-18T11:53:44;99809.59;;;-2.41;74.18
41140;BME280;26881;48.784;9.192;2022-12-18T11:59:13;99806.25;;;-2.36;74.25
41140;BME280;26881;48.784;9.192;2022-12-18T12:10:47;99780.06;;;-2.10;74.54
41140;BME280;26881;48.784;9.192;2022-12-18T12:16:17;99776.69;;;-2.06;74.49
41140;BME280;26881;48.784;9.192;2022-12-18T12:21:51;99780.34;;;-1.85;74.10
41140;BME280;26881;48.784;9.192;2022-12-18T12:33:21;99773.59;;;-1.79;72.30
41140;BME280;26881;48.784;9.192;2022-12-18T12:38:50;99771.91;;;-1.75;74.42
41140;BME280;26881;48.784;9.192;2022-12-18T12:44:17;99777.03;;;-1.75;73.39
41140;BME280;26881;48.784;9.192;2022-12-18T12:49:42;99771.13;;;-1.66;72.60
41140;BME280;26881;48.784;9.192;2022-12-18T12:55:19;99777.13;;;-1.66;72.48
41140;BME280;26881;48.784;9.192;2022-12-18T13:00:52;99788.41;;;-1.49;72.42
41140;BME280;26881;48.784;9.192;2022-12-18T13:06:28;99783.31;;;-1.44;72.34
41140;BME280;26881;48.784;9.192;2022-12-18T13:12:02;99785.97;;;-1.35;72.34
41140;BME280;26881;48.784;9.192;2022-12-18T13:17:43;99788.56;;;-1.29;71.87
41140;BME280;26881;48.784;9.192;2022-12-18T13:39:58;99766.31;;;-1.30;72.91
41140;BME280;26881;48.784;9.192;2022-12-18T13:45:38;99757.03;;;-1.15;72.74
41140;BME280;26881;48.784;9.192;2022-12-18T13:51:11;99757.03;;;-1.14;72.53
41140;BME280;26881;48.784;9.192;2022-12-18T13:56:43;99761.38;;;-1.07;72.62
41140;BME280;26881;48.784;9.192;2022-12-18T14:02:13;99763.91;;;-1.08;72.73
41140;BME280;26881;48.784;9.192;2022-12-18T14:07:37;99762.16;;;-1.12;73.27
41140;BME280;26881;48.784;9.192;2022-12-18T14:13:10;99765.63;;;-1.09;73.56
41140;BME280;26881;48.784;9.192;2022-12-18T14:18:56;99766.41;;;-1.17;74.04
41140;BME280;26881;48.784;9.192;2022-12-18T14:24:36;99759.63;;;-1.08;73.41
41140;BME280;26881;48.784;9.192;2022-12-18T14:29:57;99767.34;;;-1.09;73.26
41140;BME280;26881;48.784;9.192;2022-12-18T14:35:19;99772.44;;;-1.14;74.18
41140;BME280;26881;48.784;9.192;2022-12-18T14:40:42;99769.88;;;-1.14;74.33
41140;BME280;26881;48.784;9.192;2022-12-18T14:46:05;99774.13;;;-1.19;75.28
41140;BME280;26881;48.784;9.192;2022-12-18T14:51:47;99778.31;;;-1.30;76.06
41140;BME280;26881;48.784;9.192;2022-12-18T14:57:23;99782.50;;;-1.35;75.78
41140;BME280;26881;48.784;9.192;2022-12-18T15:02:54;99774.81;;;-1.40;76.31
41140;BME280;26881;48.784;9.192;2022-12-18T15:08:39;99773.75;;;-1.59;77.02
41140;BME280;26881;48.784;9.192;2022-12-18T15:19:58;99768.63;;;-1.59;76.36
41140;BME280;26881;48.784;9.192;2022-12-18T15:25:32;99767.78;;;-1.59;76.45
41140;BME280;26881;48.784;9.192;2022-12-18T15:36:46;99763.50;;;-1.59;76.46
41140;BME280;26881;48.784;9.192;2022-12-18T15:42:09;99771.91;;;-1.75;77.56
41140;BME280;26881;48.784;9.192;2022-12-18T15:47:50;99765.84;;;-1.82;78.14
41140;BME280;26881;48.784;9.192;2022-12-18T15:53:12;99760.63;;;-1.89;77.72
41140;BME280;26881;48.784;9.192;2022-12-18T15:58:33;99767.31;;;-2.07;78.14
41140;BME280;26881;48.784;9.192;2022-12-18T16:03:56;99765.63;;;-2.05;78.55
41140;BME280;26881;48.784;9.192;2022-12-18T16:09:18;99767.50;;;-1.87;77.53
41140;BME280;26881;48.784;9.192;2022-12-18T16:14:47;99765.13;;;-1.68;76.32
41140;BME280;26881;48.784;9.192;2022-12-18T16:25:36;99757.34;;;-1.79;76.84
41140;BME280;26881;48.784;9.192;2022-12-18T16:30:58;99766.63;;;-1.89;77.08
41140;BME280;26881;48.784;9.192;2022-12-18T16:36:20;99756.41;;;-1.84;77.28
41140;BME280;26881;48.784;9.192;2022-12-18T16:41:42;99763.28;;;-1.83;77.52
41140;BME280;26881;48.784;9.192;2022-12-18T16:47:04;99753.88;;;-1.83;77.76
41140;BME280;26881;48.784;9.192;2022-12-18T16:52:28;99755.56;;;-1.85;77.92
41140;BME280;26881;48.784;9.192;2022-12-18T16:57:50;99752.16;;;-1.82;77.04
41140;BME280;26881;48.784;9.192;2022-12-18T17:03:12;99749.50;;;-1.92;77.84
41140;BME280;26881;48.784;9.192;2022-12-18T17:08:34;99742.63;;;-1.97;78.04
41140;BME280;26881;48.784;9.192;2022-12-18T17:13:56;99733.31;;;-1.87;79.37
41140;BME280;26881;48.784;9.192;2022-12-18T17:19:19;99728.88;;;-2.04;78.30
41140;BME280;26881;48.784;9.192;2022-12-18T17:24:42;99723.81;;;-1.98;78.13
41140;BME280;26881;48.784;9.192;2022-12-18T17:30:04;99728.00;;;-2.06;77.91
41140;BME280;26881;48.784;9.192;2022-12-18T17:35:26;99722.22;;;-1.85;78.42
41140;BME280;26881;48.784;9.192;2022-12-18T17:40:48;99728.19;;;-1.87;78.64
41140;BME280;26881;48.784;9.192;2022-12-18T17:46:13;99728.25;;;-1.80;78.20
41140;BME280;26881;48.784;9.192;2022-12-18T17:51:35;99733.28;;;-1.89;78.18
41140;BME280;26881;48.784;9.192;2022-12-18T17:56:57;99729.91;;;-1.85;76.74
41140;BME280;26881;48.784;9.192;2022-12-18T18:02:19;99728.47;;;-1.57;75.89
41140;BME280;26881;48.784;9.192;2022-12-18T18:07:41;99719.03;;;-1.61;75.62
41140;BME280;26881;48.784;9.192;2022-12-18T18:13:04;99725.91;;;-1.58;75.60
41140;BME280;26881;48.784;9.192;2022-12-18T18:18:45;99714.88;;;-1.45;75.61
41140;BME280;26881;48.784;9.192;2022-12-18T18:24:07;99708.88;;;-1.47;75.71
41140;BME280;26881;48.784;9.192;2022-12-18T18:29:30;99719.06;;;-1.58;75.83
41140;BME280;26881;48.784;9.192;2022-12-18T18:34:51;99705.41;;;-1.55;75.73
41140;BME280;26881;48.784;9.192;2022-12-18T18:40:13;99702.94;;;-1.44;74.80
41140;BME280;26881;48.784;9.192;2022-12-18T18:45:35;99693.53;;;-1.38;75.79
41140;BME280;26881;48.784;9.192;2022-12-18T18:50:57;99696.97;;;-1.39;75.76
41140;BME280;26881;48.784;9.192;2022-12-18T18:56:21;99684.97;;;-1.43;73.89
41140;BME280;26881;48.784;9.192;2022-12-18T19:02:03;99693.47;;;-1.49;73.53
41140;BME280;26881;48.784;9.192;2022-12-18T19:07:26;99690.13;;;-1.38;74.13
41140;BME280;26881;48.784;9.192;2022-12-18T19:12:51;99695.22;;;-1.44;75.03
41140;BME280;26881;48.784;9.192;2022-12-18T19:18:32;99685.03;;;-1.34;74.65
41140;BME280;26881;48.784;9.192;2022-12-18T19:23:54;99675.66;;;-1.30;75.34
41140;BME280;26881;48.784;9.192;2022-12-18T19:29:16;99663.69;;;-1.27;75.45
41140;BME280;26881;48.784;9.192;2022-12-18T19:34:38;99667.97;;;-1.25;74.83
41140;BME280;26881;48.784;9.192;2022-12-18T19:40:00;99654.31;;;-1.20;76.26
41140;BME280;26881;48.784;9.192;2022-12-18T19:45:29;99656.78;;;-1.34;75.61
41140;BME280;26881;48.784;9.192;2022-12-18T19:50:51;99655.16;;;-1.22;75.30
41140;BME280;26881;48.784;9.192;2022-12-18T19:56:16;99648.34;;;-1.19;75.27
41140;BME280;26881;48.784;9.192;2022-12-18T20:01:38;99638.88;;;-1.24;75.13
41140;BME280;26881;48.784;9.192;2022-12-18T20:07:01;99632.94;;;-1.19;75.12
41140;BME280;26881;48.784;9.192;2022-12-18T20:12:23;99631.25;;;-1.14;74.98
41140;BME280;26881;48.784;9.192;2022-12-18T20:17:44;99622.75;;;-1.02;74.80
41140;BME280;26881;48.784;9.192;2022-12-18T20:23:06;99624.50;;;-0.92;74.65
41140;BME280;26881;48.784;9.192;2022-12-18T20:28:29;99603.97;;;-0.92;73.76
41140;BME280;26881;48.784;9.192;2022-12-18T20:33:51;99585.13;;;-1.00;73.66
41140;BME280;26881;48.784;9.192;2022-12-18T20:39:18;99577.38;;;-1.04;73.50
41140;BME280;26881;48.784;9.192;2022-12-18T20:44:40;99583.28;;;-1.22;74.56
41140;BME280;26881;48.784;9.192;2022-12-18T20:50:02;99604.69;;;-1.23;74.72
41140;BME280;26881;48.784;9.192;2022-12-18T20:55:24;99606.31;;;-1.36;75.33
41140;BME280;26881;48.784;9.192;2022-12-18T21:00:46;99610.59;;;-1.34;76.09
41140;BME280;26881;48.784;9.192;2022-12-18T21:06:08;99584.09;;;-1.33;76.05
41140;BME280;26881;48.784;9.192;2022-12-18T21:11:32;99593.59;;;-1.18;75.95
41140;BME280;26881;48.784;9.192;2022-12-18T21:17:12;99608.06;;;-1.32;76.27
41140;BME280;26881;48.784;9.192;2022-12-18T21:22:35;99615.63;;;-1.52;77.60
41140;BME280;26881;48.784;9.192;2022-12-18T21:27:57;99578.13;;;-1.27;77.70
41140;BME280;26881;48.784;9.192;2022-12-18T21:33:18;99605.50;;;-1.28;77.77
41140;BME280;26881;48.784;9.192;2022-12-18T21:38:40;99607.22;;;-1.27;77.35
41140;BME280;26881;48.784;9.192;2022-12-18T21:44:03;99605.50;;;-1.26;76.83
41140;BME280;26881;48.784;9.192;2022-12-18T21:49:27;99603.81;;;-1.22;76.89
41140;BME280;26881;48.784;9.192;2022-12-18T21:54:49;99588.50;;;-1.01;76.51
41140;BME280;26881;48.784;9.192;2022-12-18T22:00:13;99587.56;;;-1.23;76.43
41140;BME280;26881;48.784;9.192;2022-12-18T22:05:40;99589.31;;;-1.10;76.34
41140;BME280;26881;48.784;9.192;2022-12-18T22:11:02;99580.72;;;-1.19;76.09
41140;BME280;26881;48.784;9.192;2022-12-18T22:16:23;99567.88;;;-1.24;76.48
41140;BME280;26881;48.784;9.192;2022-12-18T22:21:47;99573.03;;;-1.22;76.78
41140;BME280;26881;48.784;9.192;2022-12-18T22:27:09;99570.50;;;-1.13;76.42
41140;BME280;26881;48.784;9.192;2022-12-18T22:32:32;99568.78;;;-1.10;76.84
41140;BME280;26881;48.784;9.192;2022-12-18T22:37:57;99573.91;;;-1.19;77.40
41140;BME280;26881;48.784;9.192;2022-12-18T22:43:19;99567.94;;;-1.09;76.68
41140;BME280;26881;48.784;9.192;2022-12-18T22:48:41;99560.22;;;-1.15;77.15
41140;BME280;26881;48.784;9.192;2022-12-18T22:54:03;99556.84;;;-0.98;76.71
41140;BME280;26881;48.784;9.192;2022-12-18T22:59:25;99574.81;;;-1.03;76.97
41140;BME280;26881;48.784;9.192;2022-12-18T23:04:47;99580.81;;;-0.99;76.99
41140;BME280;26881;48.784;9.192;2022-12-18T23:10:09;99582.50;;;-1.08;77.56
41140;BME280;26881;48.784;9.192;2022-12-18T23:15:31;99589.38;;;-1.02;77.59
41140;BME280;26881;48.784;9.192;2022-12-18T23:20:52;99579.09;;;-1.03;77.76
41140;BME280;26881;48.784;9.192;2022-12-18T23:26:17;99572.25;;;-0.98;77.95
41140;BME280;26881;48.784;9.192;2022-12-18T23:31:39;99570.56;;;-1.02;78.21
41140;BME280;26881;48.784;9.192;2022-12-18T23:37:01;99574.00;;;-0.91;77.22
41140;BME280;26881;48.784;9.192;2022-12-18T23:42:24;99576.56;;;-0.91;77.43
41140;BME280;26881;48.784;9.192;2022-12-18T23:47:48;99559.47;;;-0.86;77.86
41140;BME280;26881;48.784;9.192;2022-12-18T23:53:12;99550.06;;;-0.86;78.05
41140;BME280;26881;48.784;9.192;2022-12-18T23:58:34;99559.47;;;-0.88;78.44
